WXM80 ListenWXM80 Stop

You find our weather info also at:

UK Metoffice

WeatherCloud

Weather Underground

Northeastern Weather Network

AWEKAS

Citizen Weather Observer Program (CWOP)

HAMweather, WeatherForYou, PWS Weather


Weather Underground History page Text

Daily Summary for January 1, 2017 Units:  Both    English   Metric
« Previous Day
Next Day »
Daily Weekly Monthly Yearly Custom
  High: Low: Average:
Temperature: 47.2 °F /  8.4 °C 30.9 °F /  -0.6 °C 41.7 °F /  5.4 °C
Dew Point: 35.5 °F /  1.9 °C 24.7 °F /  -4.1 °C 29.3 °F /  -1.5 °C
Humidity: 84 % 43 % 62 %
Wind Speed: 11.2 mph /  18 km/h - 3.1 mph /  5 km/h
Wind Gust: 29.0 mph /  46.7 km/h - -
Wind:- - West
Pressure: 30.43 in /  1030.4 hPa 29.85 in /  1010.7 hPa -
Precipitation: 0.00 in /  0 mm    
Historical Graphs
 
 
Tabular Data for January 1, 2017
Time Temperature Dew Point Pressure Wind Wind Speed Wind Gust Humidity Rainfall Rate (Hourly)
00:00 43.6 °F /  6.4 °C 30.2 °F /  -1 °C 29.85 in /  1010.7 hPa SW 2.2 mph /  3.5 km/h 29.0 mph /  46.7 km/h 59 % 0.00 in /  0 mm
00:05 43.6 °F /  6.4 °C 29.8 °F /  -1.2 °C 29.85 in /  1010.7 hPa South 4.6 mph /  7.4 km/h 29.0 mph /  46.7 km/h 58 % 0.00 in /  0 mm
00:10 43.6 °F /  6.4 °C 30.2 °F /  -1 °C 29.86 in /  1011.1 hPa SSW 4.1 mph /  6.6 km/h 29.0 mph /  46.7 km/h 59 % 0.00 in /  0 mm
00:15 43.7 °F /  6.5 °C 30.3 °F /  -0.9 °C 29.86 in /  1011.1 hPa SW 4.4 mph /  7.1 km/h 29.0 mph /  46.7 km/h 59 % 0.00 in /  0 mm
00:20 43.7 °F /  6.5 °C 29.9 °F /  -1.2 °C 29.86 in /  1011.1 hPa SW 2.8 mph /  4.5 km/h 29.0 mph /  46.7 km/h 58 % 0.00 in /  0 mm
00:25 43.7 °F /  6.5 °C 29.9 °F /  -1.2 °C 29.86 in /  1011.1 hPa WSW 4.3 mph /  6.9 km/h 29.0 mph /  46.7 km/h 58 % 0.00 in /  0 mm
00:30 43.7 °F /  6.5 °C 30.3 °F /  -0.9 °C 29.86 in /  1011.1 hPa SSW 3.0 mph /  4.8 km/h 29.0 mph /  46.7 km/h 59 % 0.00 in /  0 mm
00:35 43.7 °F /  6.5 °C 29.9 °F /  -1.2 °C 29.86 in /  1011.1 hPa WSW 5.5 mph /  8.9 km/h 29.0 mph /  46.7 km/h 58 % 0.00 in /  0 mm
00:40 43.7 °F /  6.5 °C 30.3 °F /  -0.9 °C 29.86 in /  1011.1 hPa SW 5.8 mph /  9.3 km/h 29.0 mph /  46.7 km/h 59 % 0.00 in /  0 mm
00:45 43.7 °F /  6.5 °C 29.9 °F /  -1.2 °C 29.86 in /  1011.1 hPa SW 4.9 mph /  7.9 km/h 29.0 mph /  46.7 km/h 58 % 0.00 in /  0 mm
00:51 43.7 °F /  6.5 °C 30.3 °F /  -0.9 °C 29.86 in /  1011.1 hPa SW 3.7 mph /  6 km/h 29.0 mph /  46.7 km/h 59 % 0.00 in /  0 mm
00:56 43.7 °F /  6.5 °C 31.1 °F /  -0.5 °C 29.87 in /  1011.4 hPa SSW 6.0 mph /  9.7 km/h 29.0 mph /  46.7 km/h 61 % 0.00 in /  0 mm
01:01 43.6 °F /  6.4 °C 31.4 °F /  -0.3 °C 29.87 in /  1011.4 hPa WSW 4.6 mph /  7.4 km/h 29.0 mph /  46.7 km/h 62 % 0.00 in /  0 mm
01:06 43.5 °F /  6.4 °C 31.3 °F /  -0.4 °C 29.88 in /  1011.7 hPa SW 5.0 mph /  8 km/h 29.0 mph /  46.7 km/h 62 % 0.00 in /  0 mm
01:11 43.4 °F /  6.3 °C 31.6 °F /  -0.2 °C 29.88 in /  1011.7 hPa WSW 6.9 mph /  11.1 km/h 29.0 mph /  46.7 km/h 63 % 0.00 in /  0 mm
01:16 43.3 °F /  6.3 °C 31.5 °F /  -0.3 °C 29.88 in /  1011.7 hPa WSW 4.4 mph /  7.1 km/h 29.0 mph /  46.7 km/h 63 % 0.00 in /  0 mm
01:21 43.3 °F /  6.3 °C 32.7 °F /  0.4 °C 29.88 in /  1011.7 hPa SW 11.2 mph /  18 km/h 29.0 mph /  46.7 km/h 66 % 0.00 in /  0 mm
01:26 43.0 °F /  6.1 °C 33.9 °F /  1.1 °C 29.88 in /  1011.7 hPa SSW 4.2 mph /  6.8 km/h 29.0 mph /  46.7 km/h 70 % 0.00 in /  0 mm
01:31 42.6 °F /  5.9 °C 34.2 °F /  1.2 °C 29.88 in /  1011.7 hPa SSE 6.7 mph /  10.8 km/h 29.0 mph /  46.7 km/h 72 % 0.00 in /  0 mm
01:36 42.1 °F /  5.6 °C 34.7 °F /  1.5 °C 29.87 in /  1011.4 hPa SSW 3.9 mph /  6.3 km/h 29.0 mph /  46.7 km/h 75 % 0.00 in /  0 mm
01:41 41.8 °F /  5.4 °C 34.8 °F /  1.6 °C 29.87 in /  1011.4 hPa SSW 8.5 mph /  13.7 km/h 29.0 mph /  46.7 km/h 76 % 0.00 in /  0 mm
01:46 41.5 °F /  5.3 °C 35.2 °F /  1.8 °C 29.87 in /  1011.4 hPa SSW 6.4 mph /  10.3 km/h 29.0 mph /  46.7 km/h 78 % 0.00 in /  0 mm
01:51 41.4 °F /  5.2 °C 35.4 °F /  1.9 °C 29.87 in /  1011.4 hPa SSW 5.8 mph /  9.3 km/h 29.0 mph /  46.7 km/h 79 % 0.00 in /  0 mm
01:56 41.3 °F /  5.2 °C 35.3 °F /  1.8 °C 29.88 in /  1011.7 hPa SW 5.8 mph /  9.3 km/h 29.0 mph /  46.7 km/h 79 % 0.00 in /  0 mm
02:01 41.3 °F /  5.2 °C 35.3 °F /  1.8 °C 29.88 in /  1011.7 hPa SSW 4.8 mph /  7.7 km/h 29.0 mph /  46.7 km/h 79 % 0.00 in /  0 mm
02:07 41.2 °F /  5.1 °C 35.5 °F /  1.9 °C 29.88 in /  1011.7 hPa SSW 5.3 mph /  8.5 km/h 29.0 mph /  46.7 km/h 80 % 0.00 in /  0 mm
02:12 41.2 °F /  5.1 °C 35.2 °F /  1.8 °C 29.88 in /  1011.7 hPa SSW 2.2 mph /  3.5 km/h 29.0 mph /  46.7 km/h 79 % 0.00 in /  0 mm
02:17 41.2 °F /  5.1 °C 35.2 °F /  1.8 °C 29.89 in /  1012.1 hPa WSW 1.5 mph /  2.4 km/h 29.0 mph /  46.7 km/h 79 % 0.00 in /  0 mm
02:22 41.1 °F /  5.1 °C 35.1 °F /  1.7 °C 29.88 in /  1011.7 hPa SW 0.1 mph /  0.2 km/h 29.0 mph /  46.7 km/h 79 % 0.00 in /  0 mm
02:27 41.1 °F /  5.1 °C 35.1 °F /  1.7 °C 29.88 in /  1011.7 hPa SW 1.1 mph /  1.8 km/h 29.0 mph /  46.7 km/h 79 % 0.00 in /  0 mm
02:32 41.1 °F /  5.1 °C 35.1 °F /  1.7 °C 29.88 in /  1011.7 hPa SW 3.0 mph /  4.8 km/h 29.0 mph /  46.7 km/h 79 % 0.00 in /  0 mm
02:37 41.1 °F /  5.1 °C 34.4 °F /  1.3 °C 29.88 in /  1011.7 hPa WSW 3.5 mph /  5.6 km/h 29.0 mph /  46.7 km/h 77 % 0.00 in /  0 mm
02:42 41.1 °F /  5.1 °C 34.1 °F /  1.2 °C 29.88 in /  1011.7 hPa WSW 3.9 mph /  6.3 km/h 29.0 mph /  46.7 km/h 76 % 0.00 in /  0 mm
02:47 41.2 °F /  5.1 °C 33.9 °F /  1.1 °C 29.88 in /  1011.7 hPa SSW 1.1 mph /  1.8 km/h 29.0 mph /  46.7 km/h 75 % 0.00 in /  0 mm
02:52 41.3 °F /  5.2 °C 34.0 °F /  1.1 °C 29.88 in /  1011.7 hPa SW 2.8 mph /  4.5 km/h 29.0 mph /  46.7 km/h 75 % 0.00 in /  0 mm
02:58 41.3 °F /  5.2 °C 33.6 °F /  0.9 °C 29.88 in /  1011.7 hPa SW 1.4 mph /  2.3 km/h 29.0 mph /  46.7 km/h 74 % 0.00 in /  0 mm
03:03 41.4 °F /  5.2 °C 33.4 °F /  0.8 °C 29.88 in /  1011.7 hPa South 2.3 mph /  3.7 km/h 29.0 mph /  46.7 km/h 73 % 0.00 in /  0 mm
03:08 41.5 °F /  5.3 °C 33.1 °F /  0.6 °C 29.88 in /  1011.7 hPa South 2.6 mph /  4.2 km/h 29.0 mph /  46.7 km/h 72 % 0.00 in /  0 mm
03:13 41.6 °F /  5.3 °C 33.2 °F /  0.7 °C 29.88 in /  1011.7 hPa SW 2.7 mph /  4.3 km/h 29.0 mph /  46.7 km/h 72 % 0.00 in /  0 mm
03:18 41.8 °F /  5.4 °C 33.1 °F /  0.6 °C 29.89 in /  1012.1 hPa SSW 4.5 mph /  7.2 km/h 29.0 mph /  46.7 km/h 71 % 0.00 in /  0 mm
03:23 41.9 °F /  5.5 °C 32.8 °F /  0.4 °C 29.88 in /  1011.7 hPa SW 2.0 mph /  3.2 km/h 29.0 mph /  46.7 km/h 70 % 0.00 in /  0 mm
03:28 42.1 °F /  5.6 °C 32.3 °F /  0.2 °C 29.88 in /  1011.7 hPa SW 4.2 mph /  6.8 km/h 29.0 mph /  46.7 km/h 68 % 0.00 in /  0 mm
03:33 42.2 °F /  5.7 °C 32.0 °F /  0 °C 29.88 in /  1011.7 hPa SSW 3.7 mph /  6 km/h 29.0 mph /  46.7 km/h 67 % 0.00 in /  0 mm
03:38 42.4 °F /  5.8 °C 32.6 °F /  0.3 °C 29.89 in /  1012.1 hPa SW 1.2 mph /  1.9 km/h 29.0 mph /  46.7 km/h 68 % 0.00 in /  0 mm
03:43 42.5 °F /  5.8 °C 32.3 °F /  0.2 °C 29.88 in /  1011.7 hPa SSW 6.4 mph /  10.3 km/h 29.0 mph /  46.7 km/h 67 % 0.00 in /  0 mm
03:48 42.6 °F /  5.9 °C 32.0 °F /  0 °C 29.88 in /  1011.7 hPa SW 5.4 mph /  8.7 km/h 29.0 mph /  46.7 km/h 66 % 0.00 in /  0 mm
03:53 42.6 °F /  5.9 °C 31.7 °F /  -0.2 °C 29.89 in /  1012.1 hPa South 6.0 mph /  9.7 km/h 29.0 mph /  46.7 km/h 65 % 0.00 in /  0 mm
03:58 42.6 °F /  5.9 °C 31.7 °F /  -0.2 °C 29.89 in /  1012.1 hPa SSW 3.7 mph /  6 km/h 29.0 mph /  46.7 km/h 65 % 0.00 in /  0 mm
04:03 42.6 °F /  5.9 °C 31.7 °F /  -0.2 °C 29.90 in /  1012.4 hPa SW 5.8 mph /  9.3 km/h 29.0 mph /  46.7 km/h 65 % 0.00 in /  0 mm
04:08 42.6 °F /  5.9 °C 31.3 °F /  -0.4 °C 29.90 in /  1012.4 hPa SSW 4.3 mph /  6.9 km/h 29.0 mph /  46.7 km/h 64 % 0.00 in /  0 mm
04:14 42.5 °F /  5.8 °C 31.2 °F /  -0.4 °C 29.90 in /  1012.4 hPa WSW 2.8 mph /  4.5 km/h 29.0 mph /  46.7 km/h 64 % 0.00 in /  0 mm
04:19 42.5 °F /  5.8 °C 31.2 °F /  -0.4 °C 29.90 in /  1012.4 hPa SW 4.2 mph /  6.8 km/h 29.0 mph /  46.7 km/h 64 % 0.00 in /  0 mm
04:24 42.5 °F /  5.8 °C 31.2 °F /  -0.4 °C 29.90 in /  1012.4 hPa WSW 4.1 mph /  6.6 km/h 29.0 mph /  46.7 km/h 64 % 0.00 in /  0 mm
04:29 42.4 °F /  5.8 °C 31.1 °F /  -0.5 °C 29.90 in /  1012.4 hPa WSW 4.7 mph /  7.6 km/h 29.0 mph /  46.7 km/h 64 % 0.00 in /  0 mm
04:34 42.4 °F /  5.8 °C 30.7 °F /  -0.7 °C 29.90 in /  1012.4 hPa SW 3.0 mph /  4.8 km/h 29.0 mph /  46.7 km/h 63 % 0.00 in /  0 mm
04:39 42.4 °F /  5.8 °C 30.7 °F /  -0.7 °C 29.90 in /  1012.4 hPa WSW 3.8 mph /  6.1 km/h 29.0 mph /  46.7 km/h 63 % 0.00 in /  0 mm
04:44 42.4 °F /  5.8 °C 30.7 °F /  -0.7 °C 29.90 in /  1012.4 hPa SW 5.4 mph /  8.7 km/h 29.0 mph /  46.7 km/h 63 % 0.00 in /  0 mm
04:49 42.4 °F /  5.8 °C 30.7 °F /  -0.7 °C 29.91 in /  1012.8 hPa West 4.1 mph /  6.6 km/h 29.0 mph /  46.7 km/h 63 % 0.00 in /  0 mm
04:54 42.4 °F /  5.8 °C 30.7 °F /  -0.7 °C 29.92 in /  1013.1 hPa SW 8.1 mph /  13 km/h 29.0 mph /  46.7 km/h 63 % 0.00 in /  0 mm
04:59 42.6 °F /  5.9 °C 30.5 °F /  -0.8 °C 29.91 in /  1012.8 hPa WSW 6.5 mph /  10.5 km/h 29.0 mph /  46.7 km/h 62 % 0.00 in /  0 mm
05:04 42.8 °F /  6 °C 30.6 °F /  -0.8 °C 29.91 in /  1012.8 hPa SW 6.0 mph /  9.7 km/h 17.0 mph /  27.4 km/h 62 % 0.00 in /  0 mm
05:09 42.9 °F /  6.1 °C 30.8 °F /  -0.7 °C 29.91 in /  1012.8 hPa SSW 6.3 mph /  10.1 km/h 29.0 mph /  46.7 km/h 62 % 0.00 in /  0 mm
05:14 43.0 °F /  6.1 °C 30.5 °F /  -0.8 °C 29.91 in /  1012.8 hPa WSW 6.0 mph /  9.7 km/h 12.0 mph /  19.3 km/h 61 % 0.00 in /  0 mm
05:19 43.2 °F /  6.2 °C 30.6 °F /  -0.8 °C 29.91 in /  1012.8 hPa SW 4.9 mph /  7.9 km/h 29.0 mph /  46.7 km/h 61 % 0.00 in /  0 mm
05:24 43.3 °F /  6.3 °C 30.7 °F /  -0.7 °C 29.92 in /  1013.1 hPa SW 4.5 mph /  7.2 km/h 29.0 mph /  46.7 km/h 61 % 0.00 in /  0 mm
05:29 43.3 °F /  6.3 °C 30.7 °F /  -0.7 °C 29.92 in /  1013.1 hPa SW 3.0 mph /  4.8 km/h 8.0 mph /  12.9 km/h 61 % 0.00 in /  0 mm
05:34 43.3 °F /  6.3 °C 30.7 °F /  -0.7 °C 29.93 in /  1013.4 hPa SW 2.0 mph /  3.2 km/h 14.0 mph /  22.5 km/h 61 % 0.00 in /  0 mm
05:39 43.3 °F /  6.3 °C 30.7 °F /  -0.7 °C 29.93 in /  1013.4 hPa SW 5.0 mph /  8 km/h 8.0 mph /  12.9 km/h 61 % 0.00 in /  0 mm
05:44 43.3 °F /  6.3 °C 30.7 °F /  -0.7 °C 29.93 in /  1013.4 hPa SW 6.0 mph /  9.7 km/h 8.0 mph /  12.9 km/h 61 % 0.00 in /  0 mm
05:49 43.2 °F /  6.2 °C 30.6 °F /  -0.8 °C 29.94 in /  1013.8 hPa SSW 2.9 mph /  4.7 km/h 29.0 mph /  46.7 km/h 61 % 0.00 in /  0 mm
05:54 43.1 °F /  6.2 °C 30.6 °F /  -0.8 °C 29.94 in /  1013.8 hPa SW 6.0 mph /  9.7 km/h 10.0 mph /  16.1 km/h 61 % 0.00 in /  0 mm
05:59 43.1 °F /  6.2 °C 30.6 °F /  -0.8 °C 29.95 in /  1014.1 hPa SW 5.3 mph /  8.5 km/h 29.0 mph /  46.7 km/h 61 % 0.00 in /  0 mm
06:04 43.1 °F /  6.2 °C 30.6 °F /  -0.8 °C 29.95 in /  1014.1 hPa SW 3.0 mph /  4.8 km/h 10.0 mph /  16.1 km/h 61 % 0.00 in /  0 mm
06:09 43.0 °F /  6.1 °C 30.5 °F /  -0.8 °C 29.95 in /  1014.1 hPa SW 3.0 mph /  4.8 km/h 9.0 mph /  14.5 km/h 61 % 0.00 in /  0 mm
06:14 42.9 °F /  6.1 °C 30.4 °F /  -0.9 °C 29.96 in /  1014.4 hPa SW 5.0 mph /  8 km/h 8.0 mph /  12.9 km/h 61 % 0.00 in /  0 mm
06:19 42.9 °F /  6.1 °C 30.8 °F /  -0.7 °C 29.96 in /  1014.4 hPa WSW 3.0 mph /  4.8 km/h 12.0 mph /  19.3 km/h 62 % 0.00 in /  0 mm
06:24 42.9 °F /  6.1 °C 30.8 °F /  -0.7 °C 29.97 in /  1014.8 hPa SW 6.0 mph /  9.7 km/h 10.0 mph /  16.1 km/h 62 % 0.00 in /  0 mm
06:29 42.8 °F /  6 °C 30.7 °F /  -0.7 °C 29.97 in /  1014.8 hPa SW 5.0 mph /  8 km/h 10.0 mph /  16.1 km/h 62 % 0.00 in /  0 mm
06:34 42.8 °F /  6 °C 30.7 °F /  -0.7 °C 29.97 in /  1014.8 hPa WSW 2.0 mph /  3.2 km/h 9.0 mph /  14.5 km/h 62 % 0.00 in /  0 mm
06:39 42.8 °F /  6 °C 30.7 °F /  -0.7 °C 29.97 in /  1014.8 hPa SW 2.0 mph /  3.2 km/h 8.0 mph /  12.9 km/h 62 % 0.00 in /  0 mm
06:44 42.7 °F /  5.9 °C 30.6 °F /  -0.8 °C 29.97 in /  1014.8 hPa WSW 5.0 mph /  8 km/h 8.0 mph /  12.9 km/h 62 % 0.00 in /  0 mm
06:49 42.7 °F /  5.9 °C 31.0 °F /  -0.6 °C 29.98 in /  1015.1 hPa WSW 2.0 mph /  3.2 km/h 7.0 mph /  11.3 km/h 63 % 0.00 in /  0 mm
06:54 42.6 °F /  5.9 °C 30.9 °F /  -0.6 °C 29.98 in /  1015.1 hPa WSW 3.0 mph /  4.8 km/h 9.0 mph /  14.5 km/h 63 % 0.00 in /  0 mm
06:59 42.6 °F /  5.9 °C 31.3 °F /  -0.4 °C 29.98 in /  1015.1 hPa West 3.1 mph /  5 km/h 29.0 mph /  46.7 km/h 64 % 0.00 in /  0 mm
07:04 42.6 °F /  5.9 °C 31.3 °F /  -0.4 °C 29.98 in /  1015.1 hPa West 1.8 mph /  2.9 km/h 29.0 mph /  46.7 km/h 64 % 0.00 in /  0 mm
07:09 42.6 °F /  5.9 °C 31.3 °F /  -0.4 °C 29.99 in /  1015.5 hPa West 4.4 mph /  7.1 km/h 29.0 mph /  46.7 km/h 64 % 0.00 in /  0 mm
07:14 42.6 °F /  5.9 °C 31.3 °F /  -0.4 °C 29.99 in /  1015.5 hPa SW 2.9 mph /  4.7 km/h 29.0 mph /  46.7 km/h 64 % 0.00 in /  0 mm
07:19 42.6 °F /  5.9 °C 31.7 °F /  -0.2 °C 29.99 in /  1015.5 hPa WSW 2.9 mph /  4.7 km/h 29.0 mph /  46.7 km/h 65 % 0.00 in /  0 mm
07:24 42.6 °F /  5.9 °C 31.7 °F /  -0.2 °C 29.99 in /  1015.5 hPa West 4.1 mph /  6.6 km/h 29.0 mph /  46.7 km/h 65 % 0.00 in /  0 mm
07:29 42.7 °F /  5.9 °C 31.7 °F /  -0.2 °C 29.99 in /  1015.5 hPa West 5.0 mph /  8 km/h 29.0 mph /  46.7 km/h 65 % 0.00 in /  0 mm
07:35 42.9 °F /  6.1 °C 31.9 °F /  -0.1 °C 29.99 in /  1015.5 hPa WSW 3.0 mph /  4.8 km/h 29.0 mph /  46.7 km/h 65 % 0.00 in /  0 mm
07:40 42.9 °F /  6.1 °C 31.9 °F /  -0.1 °C 29.99 in /  1015.5 hPa West 6.7 mph /  10.8 km/h 29.0 mph /  46.7 km/h 65 % 0.00 in /  0 mm
07:45 43.1 °F /  6.2 °C 32.1 °F /  0.1 °C 30.00 in /  1015.8 hPa SSW 2.8 mph /  4.5 km/h 29.0 mph /  46.7 km/h 65 % 0.00 in /  0 mm
07:50 43.2 °F /  6.2 °C 32.2 °F /  0.1 °C 30.00 in /  1015.8 hPa West 6.6 mph /  10.6 km/h 29.0 mph /  46.7 km/h 65 % 0.00 in /  0 mm
07:55 43.3 °F /  6.3 °C 32.3 °F /  0.2 °C 30.01 in /  1016.1 hPa WSW 5.5 mph /  8.9 km/h 29.0 mph /  46.7 km/h 65 % 0.00 in /  0 mm
08:00 43.4 °F /  6.3 °C 32.4 °F /  0.2 °C 30.01 in /  1016.1 hPa WSW 1.2 mph /  1.9 km/h 29.0 mph /  46.7 km/h 65 % 0.00 in /  0 mm
08:05 43.4 °F /  6.3 °C 32.4 °F /  0.2 °C 30.01 in /  1016.1 hPa West 1.8 mph /  2.9 km/h 29.0 mph /  46.7 km/h 65 % 0.00 in /  0 mm
08:10 43.4 °F /  6.3 °C 32.4 °F /  0.2 °C 30.02 in /  1016.5 hPa WSW 1.8 mph /  2.9 km/h 29.0 mph /  46.7 km/h 65 % 0.00 in /  0 mm
08:15 43.4 °F /  6.3 °C 32.4 °F /  0.2 °C 30.02 in /  1016.5 hPa WSW 4.3 mph /  6.9 km/h 29.0 mph /  46.7 km/h 65 % 0.00 in /  0 mm
08:20 43.5 °F /  6.4 °C 32.5 °F /  0.3 °C 30.02 in /  1016.5 hPa WSW 7.0 mph /  11.3 km/h 29.0 mph /  46.7 km/h 65 % 0.00 in /  0 mm
08:25 43.7 °F /  6.5 °C 32.7 °F /  0.4 °C 30.03 in /  1016.8 hPa WNW 6.0 mph /  9.7 km/h 29.0 mph /  46.7 km/h 65 % 0.00 in /  0 mm
08:30 43.8 °F /  6.6 °C 32.8 °F /  0.4 °C 30.03 in /  1016.8 hPa WSW 6.7 mph /  10.8 km/h 29.0 mph /  46.7 km/h 65 % 0.00 in /  0 mm
08:40 44.1 °F /  6.7 °C 33.1 °F /  0.6 °C 30.04 in /  1017.2 hPa WSW 5.7 mph /  9.2 km/h 29.0 mph /  46.7 km/h 65 % 0.00 in /  0 mm
08:45 44.3 °F /  6.8 °C 33.3 °F /  0.7 °C 30.05 in /  1017.5 hPa WNW 2.6 mph /  4.2 km/h 29.0 mph /  46.7 km/h 65 % 0.00 in /  0 mm
08:51 44.4 °F /  6.9 °C 33.4 °F /  0.8 °C 30.05 in /  1017.5 hPa WSW 3.6 mph /  5.8 km/h 29.0 mph /  46.7 km/h 65 % 0.00 in /  0 mm
08:56 44.7 °F /  7.1 °C 33.6 °F /  0.9 °C 30.06 in /  1017.8 hPa NW 2.8 mph /  4.5 km/h 29.0 mph /  46.7 km/h 65 % 0.00 in /  0 mm
09:01 44.9 °F /  7.2 °C 33.5 °F /  0.8 °C 30.06 in /  1017.8 hPa WNW 5.5 mph /  8.9 km/h 29.0 mph /  46.7 km/h 64 % 0.00 in /  0 mm
09:06 45.2 °F /  7.3 °C 33.3 °F /  0.7 °C 30.07 in /  1018.2 hPa WNW 7.0 mph /  11.3 km/h 29.0 mph /  46.7 km/h 63 % 0.00 in /  0 mm
09:11 45.3 °F /  7.4 °C 33.4 °F /  0.8 °C 30.07 in /  1018.2 hPa WNW 1.9 mph /  3.1 km/h 29.0 mph /  46.7 km/h 63 % 0.00 in /  0 mm
09:16 45.4 °F /  7.4 °C 33.5 °F /  0.8 °C 30.08 in /  1018.5 hPa WNW 3.7 mph /  6 km/h 29.0 mph /  46.7 km/h 63 % 0.00 in /  0 mm
09:21 45.6 °F /  7.6 °C 33.7 °F /  0.9 °C 30.08 in /  1018.5 hPa West 6.4 mph /  10.3 km/h 29.0 mph /  46.7 km/h 63 % 0.00 in /  0 mm
09:26 45.8 °F /  7.7 °C 33.9 °F /  1.1 °C 30.09 in /  1018.8 hPa WNW 3.2 mph /  5.1 km/h 29.0 mph /  46.7 km/h 63 % 0.00 in /  0 mm
09:31 45.9 °F /  7.7 °C 34.0 °F /  1.1 °C 30.09 in /  1018.8 hPa WSW 4.5 mph /  7.2 km/h 29.0 mph /  46.7 km/h 63 % 0.00 in /  0 mm
09:36 46.0 °F /  7.8 °C 33.7 °F /  0.9 °C 30.09 in /  1018.8 hPa West 7.4 mph /  11.9 km/h 29.0 mph /  46.7 km/h 62 % 0.00 in /  0 mm
09:40 46.1 °F /  7.8 °C 33.8 °F /  1 °C 30.09 in /  1018.8 hPa West 3.3 mph /  5.3 km/h 29.0 mph /  46.7 km/h 62 % 0.00 in /  0 mm
09:46 46.3 °F /  7.9 °C 33.6 °F /  0.9 °C 30.10 in /  1019.2 hPa WNW 4.1 mph /  6.6 km/h 29.0 mph /  46.7 km/h 61 % 0.00 in /  0 mm
09:51 46.4 °F /  8 °C 33.7 °F /  0.9 °C 30.10 in /  1019.2 hPa West 3.8 mph /  6.1 km/h 29.0 mph /  46.7 km/h 61 % 0.00 in /  0 mm
09:56 46.6 °F /  8.1 °C 33.4 °F /  0.8 °C 30.10 in /  1019.2 hPa SSW 2.3 mph /  3.7 km/h 29.0 mph /  46.7 km/h 60 % 0.00 in /  0 mm
10:01 46.7 °F /  8.2 °C 33.5 °F /  0.8 °C 30.10 in /  1019.2 hPa WNW 3.2 mph /  5.1 km/h 29.0 mph /  46.7 km/h 60 % 0.00 in /  0 mm
10:06 46.8 °F /  8.2 °C 33.6 °F /  0.9 °C 30.11 in /  1019.5 hPa NNW 3.9 mph /  6.3 km/h 29.0 mph /  46.7 km/h 60 % 0.00 in /  0 mm
10:11 46.8 °F /  8.2 °C 34.0 °F /  1.1 °C 30.11 in /  1019.5 hPa NNW 4.3 mph /  6.9 km/h 29.0 mph /  46.7 km/h 61 % 0.00 in /  0 mm
10:16 46.8 °F /  8.2 °C 34.5 °F /  1.4 °C 30.11 in /  1019.5 hPa West 3.5 mph /  5.6 km/h 29.0 mph /  46.7 km/h 62 % 0.00 in /  0 mm
10:21 46.7 °F /  8.2 °C 34.0 °F /  1.1 °C 30.11 in /  1019.5 hPa West 5.7 mph /  9.2 km/h 29.0 mph /  46.7 km/h 61 % 0.00 in /  0 mm
10:26 46.7 °F /  8.2 °C 33.5 °F /  0.8 °C 30.12 in /  1019.9 hPa NNW 4.8 mph /  7.7 km/h 29.0 mph /  46.7 km/h 60 % 0.00 in /  0 mm
10:31 46.7 °F /  8.2 °C 33.1 °F /  0.6 °C 30.11 in /  1019.5 hPa WNW 6.5 mph /  10.5 km/h 29.0 mph /  46.7 km/h 59 % 0.00 in /  0 mm
10:36 46.7 °F /  8.2 °C 33.5 °F /  0.8 °C 30.12 in /  1019.9 hPa West 2.8 mph /  4.5 km/h 29.0 mph /  46.7 km/h 60 % 0.00 in /  0 mm
10:41 46.6 °F /  8.1 °C 32.6 °F /  0.3 °C 30.12 in /  1019.9 hPa NNW 2.2 mph /  3.5 km/h 29.0 mph /  46.7 km/h 58 % 0.00 in /  0 mm
10:46 46.5 °F /  8.1 °C 32.1 °F /  0.1 °C 30.12 in /  1019.9 hPa West 2.2 mph /  3.5 km/h 29.0 mph /  46.7 km/h 57 % 0.00 in /  0 mm
10:51 46.5 °F /  8.1 °C 31.6 °F /  -0.2 °C 30.12 in /  1019.9 hPa NW 2.7 mph /  4.3 km/h 29.0 mph /  46.7 km/h 56 % 0.00 in /  0 mm
10:57 46.6 °F /  8.1 °C 32.2 °F /  0.1 °C 30.12 in /  1019.9 hPa WNW 8.7 mph /  14 km/h 29.0 mph /  46.7 km/h 57 % 0.00 in /  0 mm
11:02 46.4 °F /  8 °C 32.0 °F /  0 °C 30.12 in /  1019.9 hPa WNW 4.8 mph /  7.7 km/h 29.0 mph /  46.7 km/h 57 % 0.00 in /  0 mm
11:07 46.2 °F /  7.9 °C 31.8 °F /  -0.1 °C 30.12 in /  1019.9 hPa WNW 4.4 mph /  7.1 km/h 29.0 mph /  46.7 km/h 57 % 0.00 in /  0 mm
11:12 46.1 °F /  7.8 °C 30.8 °F /  -0.7 °C 30.13 in /  1020.2 hPa NW 5.8 mph /  9.3 km/h 29.0 mph /  46.7 km/h 55 % 0.00 in /  0 mm
11:17 46.0 °F /  7.8 °C 30.7 °F /  -0.7 °C 30.12 in /  1019.9 hPa WNW 2.6 mph /  4.2 km/h 29.0 mph /  46.7 km/h 55 % 0.00 in /  0 mm
11:22 45.9 °F /  7.7 °C 31.1 °F /  -0.5 °C 30.13 in /  1020.2 hPa NW 4.8 mph /  7.7 km/h 29.0 mph /  46.7 km/h 56 % 0.00 in /  0 mm
11:27 45.9 °F /  7.7 °C 30.2 °F /  -1 °C 30.13 in /  1020.2 hPa West 7.9 mph /  12.7 km/h 29.0 mph /  46.7 km/h 54 % 0.00 in /  0 mm
11:32 45.8 °F /  7.7 °C 29.6 °F /  -1.3 °C 30.13 in /  1020.2 hPa NW 5.3 mph /  8.5 km/h 29.0 mph /  46.7 km/h 53 % 0.00 in /  0 mm
11:37 45.8 °F /  7.7 °C 29.6 °F /  -1.3 °C 30.13 in /  1020.2 hPa NW 3.3 mph /  5.3 km/h 29.0 mph /  46.7 km/h 53 % 0.00 in /  0 mm
11:42 45.8 °F /  7.7 °C 29.6 °F /  -1.3 °C 30.13 in /  1020.2 hPa West 5.2 mph /  8.4 km/h 29.0 mph /  46.7 km/h 53 % 0.00 in /  0 mm
11:47 45.8 °F /  7.7 °C 28.7 °F /  -1.8 °C 30.13 in /  1020.2 hPa WNW 4.6 mph /  7.4 km/h 29.0 mph /  46.7 km/h 51 % 0.00 in /  0 mm
11:52 45.9 °F /  7.7 °C 28.8 °F /  -1.8 °C 30.14 in /  1020.5 hPa WNW 7.2 mph /  11.6 km/h 29.0 mph /  46.7 km/h 51 % 0.00 in /  0 mm
11:57 45.8 °F /  7.7 °C 29.2 °F /  -1.6 °C 30.14 in /  1020.5 hPa WNW 3.3 mph /  5.3 km/h 29.0 mph /  46.7 km/h 52 % 0.00 in /  0 mm
12:02 45.9 °F /  7.7 °C 28.8 °F /  -1.8 °C 30.14 in /  1020.5 hPa West 8.2 mph /  13.2 km/h 29.0 mph /  46.7 km/h 51 % 0.00 in /  0 mm
12:07 45.9 °F /  7.7 °C 29.2 °F /  -1.6 °C 30.14 in /  1020.5 hPa WNW 3.7 mph /  6 km/h 29.0 mph /  46.7 km/h 52 % 0.00 in /  0 mm
12:12 46.0 °F /  7.8 °C 29.3 °F /  -1.5 °C 30.14 in /  1020.5 hPa NW 3.2 mph /  5.1 km/h 29.0 mph /  46.7 km/h 52 % 0.00 in /  0 mm
12:17 46.1 °F /  7.8 °C 29.4 °F /  -1.4 °C 30.14 in /  1020.5 hPa WSW 4.2 mph /  6.8 km/h 29.0 mph /  46.7 km/h 52 % 0.00 in /  0 mm
12:22 46.3 °F /  7.9 °C 30.1 °F /  -1.1 °C 30.14 in /  1020.5 hPa West 2.5 mph /  4 km/h 29.0 mph /  46.7 km/h 53 % 0.00 in /  0 mm
12:27 46.6 °F /  8.1 °C 28.4 °F /  -2 °C 30.14 in /  1020.5 hPa WNW 5.3 mph /  8.5 km/h 29.0 mph /  46.7 km/h 49 % 0.00 in /  0 mm
12:32 46.8 °F /  8.2 °C 29.6 °F /  -1.3 °C 30.14 in /  1020.5 hPa WNW 4.5 mph /  7.2 km/h 29.0 mph /  46.7 km/h 51 % 0.00 in /  0 mm
12:38 47.0 °F /  8.3 °C 28.8 °F /  -1.8 °C 30.14 in /  1020.5 hPa West 6.5 mph /  10.5 km/h 29.0 mph /  46.7 km/h 49 % 0.00 in /  0 mm
12:43 47.2 °F /  8.4 °C 28.0 °F /  -2.2 °C 30.14 in /  1020.5 hPa NW 6.3 mph /  10.1 km/h 29.0 mph /  46.7 km/h 47 % 0.00 in /  0 mm
12:48 47.1 °F /  8.4 °C 27.4 °F /  -2.6 °C 30.14 in /  1020.5 hPa NW 4.1 mph /  6.6 km/h 29.0 mph /  46.7 km/h 46 % 0.00 in /  0 mm
12:53 47.1 °F /  8.4 °C 27.4 °F /  -2.6 °C 30.14 in /  1020.5 hPa NW 5.7 mph /  9.2 km/h 29.0 mph /  46.7 km/h 46 % 0.00 in /  0 mm
12:58 47.0 °F /  8.3 °C 27.3 °F /  -2.6 °C 30.14 in /  1020.5 hPa WNW 5.5 mph /  8.9 km/h 29.0 mph /  46.7 km/h 46 % 0.00 in /  0 mm
13:03 47.0 °F /  8.3 °C 26.7 °F /  -2.9 °C 30.15 in /  1020.9 hPa SW 6.3 mph /  10.1 km/h 29.0 mph /  46.7 km/h 45 % 0.00 in /  0 mm
13:08 46.9 °F /  8.3 °C 26.1 °F /  -3.3 °C 30.15 in /  1020.9 hPa WNW 5.9 mph /  9.5 km/h 29.0 mph /  46.7 km/h 44 % 0.00 in /  0 mm
13:13 46.9 °F /  8.3 °C 26.6 °F /  -3 °C 30.15 in /  1020.9 hPa NNW 5.9 mph /  9.5 km/h 29.0 mph /  46.7 km/h 45 % 0.00 in /  0 mm
13:18 46.9 °F /  8.3 °C 27.2 °F /  -2.7 °C 30.15 in /  1020.9 hPa WNW 5.1 mph /  8.2 km/h 29.0 mph /  46.7 km/h 46 % 0.00 in /  0 mm
13:23 46.9 °F /  8.3 °C 26.1 °F /  -3.3 °C 30.15 in /  1020.9 hPa West 7.4 mph /  11.9 km/h 29.0 mph /  46.7 km/h 44 % 0.00 in /  0 mm
13:28 47.0 °F /  8.3 °C 26.2 °F /  -3.2 °C 30.15 in /  1020.9 hPa WSW 3.9 mph /  6.3 km/h 29.0 mph /  46.7 km/h 44 % 0.00 in /  0 mm
13:33 47.0 °F /  8.3 °C 26.2 °F /  -3.2 °C 30.16 in /  1021.2 hPa WSW 4.3 mph /  6.9 km/h 29.0 mph /  46.7 km/h 44 % 0.00 in /  0 mm
13:38 47.0 °F /  8.3 °C 26.2 °F /  -3.2 °C 30.15 in /  1020.9 hPa WNW 5.0 mph /  8 km/h 29.0 mph /  46.7 km/h 44 % 0.00 in /  0 mm
13:43 47.1 °F /  8.4 °C 26.3 °F /  -3.2 °C 30.15 in /  1020.9 hPa WNW 4.7 mph /  7.6 km/h 29.0 mph /  46.7 km/h 44 % 0.00 in /  0 mm
13:49 47.1 °F /  8.4 °C 26.3 °F /  -3.2 °C 30.16 in /  1021.2 hPa West 3.6 mph /  5.8 km/h 29.0 mph /  46.7 km/h 44 % 0.00 in /  0 mm
13:54 47.1 °F /  8.4 °C 26.3 °F /  -3.2 °C 30.16 in /  1021.2 hPa NW 5.8 mph /  9.3 km/h 29.0 mph /  46.7 km/h 44 % 0.00 in /  0 mm
13:59 47.2 °F /  8.4 °C 26.4 °F /  -3.1 °C 30.16 in /  1021.2 hPa WNW 5.1 mph /  8.2 km/h 29.0 mph /  46.7 km/h 44 % 0.00 in /  0 mm
14:04 47.2 °F /  8.4 °C 25.8 °F /  -3.4 °C 30.17 in /  1021.6 hPa WNW 6.1 mph /  9.8 km/h 29.0 mph /  46.7 km/h 43 % 0.00 in /  0 mm
14:09 47.2 °F /  8.4 °C 26.4 °F /  -3.1 °C 30.17 in /  1021.6 hPa WSW 5.2 mph /  8.4 km/h 29.0 mph /  46.7 km/h 44 % 0.00 in /  0 mm
14:14 47.2 °F /  8.4 °C 25.8 °F /  -3.4 °C 30.17 in /  1021.6 hPa WNW 5.5 mph /  8.9 km/h 29.0 mph /  46.7 km/h 43 % 0.00 in /  0 mm
14:19 47.1 °F /  8.4 °C 25.7 °F /  -3.5 °C 30.17 in /  1021.6 hPa West 2.7 mph /  4.3 km/h 29.0 mph /  46.7 km/h 43 % 0.00 in /  0 mm
14:24 47.0 °F /  8.3 °C 26.2 °F /  -3.2 °C 30.17 in /  1021.6 hPa NW 5.5 mph /  8.9 km/h 29.0 mph /  46.7 km/h 44 % 0.00 in /  0 mm
14:29 46.9 °F /  8.3 °C 26.1 °F /  -3.3 °C 30.18 in /  1021.9 hPa WSW 4.9 mph /  7.9 km/h 29.0 mph /  46.7 km/h 44 % 0.00 in /  0 mm
14:34 46.8 °F /  8.2 °C 26.0 °F /  -3.3 °C 30.17 in /  1021.6 hPa WNW 1.1 mph /  1.8 km/h 29.0 mph /  46.7 km/h 44 % 0.00 in /  0 mm
14:39 46.7 °F /  8.2 °C 25.9 °F /  -3.4 °C 30.18 in /  1021.9 hPa NW 4.7 mph /  7.6 km/h 29.0 mph /  46.7 km/h 44 % 0.00 in /  0 mm
14:44 46.5 °F /  8.1 °C 25.7 °F /  -3.5 °C 30.18 in /  1021.9 hPa WNW 2.0 mph /  3.2 km/h 7.0 mph /  11.3 km/h 44 % 0.00 in /  0 mm
14:49 46.4 °F /  8 °C 25.6 °F /  -3.6 °C 30.18 in /  1021.9 hPa WSW 5.7 mph /  9.2 km/h 29.0 mph /  46.7 km/h 44 % 0.00 in /  0 mm
14:54 46.3 °F /  7.9 °C 26.1 °F /  -3.3 °C 30.18 in /  1021.9 hPa NW 2.4 mph /  3.9 km/h 29.0 mph /  46.7 km/h 45 % 0.00 in /  0 mm
14:59 46.2 °F /  7.9 °C 26.0 °F /  -3.3 °C 30.19 in /  1022.2 hPa WSW 4.5 mph /  7.2 km/h 29.0 mph /  46.7 km/h 45 % 0.00 in /  0 mm
15:04 46.1 °F /  7.8 °C 25.9 °F /  -3.4 °C 30.19 in /  1022.2 hPa WNW 3.3 mph /  5.3 km/h 29.0 mph /  46.7 km/h 45 % 0.00 in /  0 mm
15:09 46.0 °F /  7.8 °C 25.8 °F /  -3.4 °C 30.19 in /  1022.2 hPa WNW 1.3 mph /  2.1 km/h 29.0 mph /  46.7 km/h 45 % 0.00 in /  0 mm
15:14 45.9 °F /  7.7 °C 25.7 °F /  -3.5 °C 30.20 in /  1022.6 hPa WSW 3.9 mph /  6.3 km/h 29.0 mph /  46.7 km/h 45 % 0.00 in /  0 mm
15:19 45.8 °F /  7.7 °C 26.2 °F /  -3.2 °C 30.20 in /  1022.6 hPa WNW 4.0 mph /  6.4 km/h 29.0 mph /  46.7 km/h 46 % 0.00 in /  0 mm
15:24 45.8 °F /  7.7 °C 26.7 °F /  -2.9 °C 30.21 in /  1022.9 hPa WNW 3.2 mph /  5.1 km/h 29.0 mph /  46.7 km/h 47 % 0.00 in /  0 mm
15:30 45.7 °F /  7.6 °C 26.6 °F /  -3 °C 30.21 in /  1022.9 hPa WNW 1.5 mph /  2.4 km/h 29.0 mph /  46.7 km/h 47 % 0.00 in /  0 mm
15:35 45.5 °F /  7.5 °C 26.9 °F /  -2.8 °C 30.21 in /  1022.9 hPa WNW 2.8 mph /  4.5 km/h 29.0 mph /  46.7 km/h 48 % 0.00 in /  0 mm
15:40 45.4 °F /  7.4 °C 26.3 °F /  -3.2 °C 30.21 in /  1022.9 hPa West 3.3 mph /  5.3 km/h 29.0 mph /  46.7 km/h 47 % 0.00 in /  0 mm
15:45 45.3 °F /  7.4 °C 26.2 °F /  -3.2 °C 30.22 in /  1023.2 hPa WNW 1.7 mph /  2.7 km/h 29.0 mph /  46.7 km/h 47 % 0.00 in /  0 mm
15:50 45.2 °F /  7.3 °C 25.6 °F /  -3.6 °C 30.22 in /  1023.2 hPa West 2.6 mph /  4.2 km/h 29.0 mph /  46.7 km/h 46 % 0.00 in /  0 mm
15:55 45.1 °F /  7.3 °C 26.1 °F /  -3.3 °C 30.23 in /  1023.6 hPa WNW 1.5 mph /  2.4 km/h 29.0 mph /  46.7 km/h 47 % 0.00 in /  0 mm
16:00 44.9 °F /  7.2 °C 26.4 °F /  -3.1 °C 30.23 in /  1023.6 hPa WSW 1.5 mph /  2.4 km/h 29.0 mph /  46.7 km/h 48 % 0.00 in /  0 mm
16:05 44.8 °F /  7.1 °C 26.3 °F /  -3.2 °C 30.23 in /  1023.6 hPa West 2.6 mph /  4.2 km/h 29.0 mph /  46.7 km/h 48 % 0.00 in /  0 mm
16:10 44.6 °F /  7 °C 26.1 °F /  -3.3 °C 30.24 in /  1023.9 hPa WNW 1.1 mph /  1.8 km/h 29.0 mph /  46.7 km/h 48 % 0.00 in /  0 mm
16:15 44.5 °F /  6.9 °C 25.5 °F /  -3.6 °C 30.24 in /  1023.9 hPa WNW 0.8 mph /  1.3 km/h 29.0 mph /  46.7 km/h 47 % 0.00 in /  0 mm
16:20 44.4 °F /  6.9 °C 25.4 °F /  -3.7 °C 30.25 in /  1024.3 hPa WNW 0.4 mph /  0.6 km/h 29.0 mph /  46.7 km/h 47 % 0.00 in /  0 mm
16:25 44.3 °F /  6.8 °C 25.3 °F /  -3.7 °C 30.25 in /  1024.3 hPa WNW 2.4 mph /  3.9 km/h 29.0 mph /  46.7 km/h 47 % 0.00 in /  0 mm
16:31 44.1 °F /  6.7 °C 25.6 °F /  -3.6 °C 30.25 in /  1024.3 hPa WNW 2.6 mph /  4.2 km/h 29.0 mph /  46.7 km/h 48 % 0.00 in /  0 mm
16:36 43.9 °F /  6.6 °C 25.5 °F /  -3.6 °C 30.25 in /  1024.3 hPa WNW 0.2 mph /  0.3 km/h 29.0 mph /  46.7 km/h 48 % 0.00 in /  0 mm
16:41 43.8 °F /  6.6 °C 25.4 °F /  -3.7 °C 30.26 in /  1024.6 hPa WNW 0.5 mph /  0.8 km/h 29.0 mph /  46.7 km/h 48 % 0.00 in /  0 mm
16:46 43.6 °F /  6.4 °C 25.7 °F /  -3.5 °C 30.27 in /  1024.9 hPa WNW 1.5 mph /  2.4 km/h 29.0 mph /  46.7 km/h 49 % 0.00 in /  0 mm
16:51 43.3 °F /  6.3 °C 25.9 °F /  -3.4 °C 30.27 in /  1024.9 hPa WNW 2.7 mph /  4.3 km/h 29.0 mph /  46.7 km/h 50 % 0.00 in /  0 mm
16:56 43.2 °F /  6.2 °C 25.8 °F /  -3.4 °C 30.27 in /  1024.9 hPa WNW 3.6 mph /  5.8 km/h 29.0 mph /  46.7 km/h 50 % 0.00 in /  0 mm
17:01 43.0 °F /  6.1 °C 25.6 °F /  -3.6 °C 30.28 in /  1025.3 hPa NW 2.7 mph /  4.3 km/h 29.0 mph /  46.7 km/h 50 % 0.00 in /  0 mm
17:06 42.8 °F /  6 °C 25.4 °F /  -3.7 °C 30.28 in /  1025.3 hPa NNW 2.0 mph /  3.2 km/h 29.0 mph /  46.7 km/h 50 % 0.00 in /  0 mm
17:11 42.8 °F /  6 °C 25.4 °F /  -3.7 °C 30.28 in /  1025.3 hPa NW 2.0 mph /  3.2 km/h 29.0 mph /  46.7 km/h 50 % 0.00 in /  0 mm
17:16 42.7 °F /  5.9 °C 25.8 °F /  -3.4 °C 30.29 in /  1025.6 hPa NW 3.2 mph /  5.1 km/h 29.0 mph /  46.7 km/h 51 % 0.00 in /  0 mm
17:21 42.6 °F /  5.9 °C 26.2 °F /  -3.2 °C 30.29 in /  1025.6 hPa WNW 2.0 mph /  3.2 km/h 29.0 mph /  46.7 km/h 52 % 0.00 in /  0 mm
17:26 42.5 °F /  5.8 °C 26.6 °F /  -3 °C 30.29 in /  1025.6 hPa WNW 1.8 mph /  2.9 km/h 29.0 mph /  46.7 km/h 53 % 0.00 in /  0 mm
17:31 42.4 °F /  5.8 °C 26.9 °F /  -2.8 °C 30.29 in /  1025.6 hPa WNW 0.4 mph /  0.6 km/h 29.0 mph /  46.7 km/h 54 % 0.00 in /  0 mm
17:36 42.4 °F /  5.8 °C 26.9 °F /  -2.8 °C 30.30 in /  1026 hPa WNW 2.3 mph /  3.7 km/h 29.0 mph /  46.7 km/h 54 % 0.00 in /  0 mm
17:41 42.2 °F /  5.7 °C 27.2 °F /  -2.7 °C 30.30 in /  1026 hPa NW 0.9 mph /  1.4 km/h 29.0 mph /  46.7 km/h 55 % 0.00 in /  0 mm
17:46 42.1 °F /  5.6 °C 27.5 °F /  -2.5 °C 30.30 in /  1026 hPa NW 0.7 mph /  1.1 km/h 29.0 mph /  46.7 km/h 56 % 0.00 in /  0 mm
17:52 42.0 °F /  5.6 °C 27.9 °F /  -2.3 °C 30.30 in /  1026 hPa WNW 0.6 mph /  1 km/h 29.0 mph /  46.7 km/h 57 % 0.00 in /  0 mm
17:57 41.9 °F /  5.5 °C 28.2 °F /  -2.1 °C 30.30 in /  1026 hPa WNW 0.6 mph /  1 km/h 29.0 mph /  46.7 km/h 58 % 0.00 in /  0 mm
18:02 41.8 °F /  5.4 °C 28.5 °F /  -1.9 °C 30.30 in /  1026 hPa WNW 1.8 mph /  2.9 km/h 29.0 mph /  46.7 km/h 59 % 0.00 in /  0 mm
18:07 41.7 °F /  5.4 °C 28.8 °F /  -1.8 °C 30.30 in /  1026 hPa WNW 0.4 mph /  0.6 km/h 29.0 mph /  46.7 km/h 60 % 0.00 in /  0 mm
18:12 41.6 °F /  5.3 °C 28.7 °F /  -1.8 °C 30.31 in /  1026.3 hPa WNW 0.2 mph /  0.3 km/h 29.0 mph /  46.7 km/h 60 % 0.00 in /  0 mm
18:17 41.4 °F /  5.2 °C 28.5 °F /  -1.9 °C 30.30 in /  1026 hPa WNW 0.5 mph /  0.8 km/h 29.0 mph /  46.7 km/h 60 % 0.00 in /  0 mm
18:22 41.2 °F /  5.1 °C 28.4 °F /  -2 °C 30.31 in /  1026.3 hPa WNW 0.1 mph /  0.2 km/h 29.0 mph /  46.7 km/h 60 % 0.00 in /  0 mm
18:27 41.0 °F /  5 °C 29.4 °F /  -1.4 °C 30.31 in /  1026.3 hPa Calm   29.0 mph /  46.7 km/h 63 % 0.00 in /  0 mm
18:32 40.8 °F /  4.9 °C 29.2 °F /  -1.6 °C 30.32 in /  1026.6 hPa Calm   29.0 mph /  46.7 km/h 63 % 0.00 in /  0 mm
18:37 40.3 °F /  4.6 °C 28.7 °F /  -1.8 °C 30.32 in /  1026.6 hPa WNW 1.7 mph /  2.7 km/h 29.0 mph /  46.7 km/h 63 % 0.00 in /  0 mm
18:42 39.8 °F /  4.3 °C 28.2 °F /  -2.1 °C 30.32 in /  1026.6 hPa WNW 0.9 mph /  1.4 km/h 29.0 mph /  46.7 km/h 63 % 0.00 in /  0 mm
18:47 39.5 °F /  4.2 °C 27.9 °F /  -2.3 °C 30.31 in /  1026.3 hPa West 0.5 mph /  0.8 km/h 29.0 mph /  46.7 km/h 63 % 0.00 in /  0 mm
18:52 39.3 °F /  4.1 °C 28.5 °F /  -1.9 °C 30.31 in /  1026.3 hPa Calm   29.0 mph /  46.7 km/h 65 % 0.00 in /  0 mm
18:57 39.1 °F /  3.9 °C 27.9 °F /  -2.3 °C 30.32 in /  1026.6 hPa Calm   29.0 mph /  46.7 km/h 64 % 0.00 in /  0 mm
19:02 38.5 °F /  3.6 °C 27.7 °F /  -2.4 °C 30.32 in /  1026.6 hPa West 1.8 mph /  2.9 km/h 29.0 mph /  46.7 km/h 65 % 0.00 in /  0 mm
19:07 38.0 °F /  3.3 °C 26.9 °F /  -2.8 °C 30.33 in /  1027 hPa West 0.9 mph /  1.4 km/h 29.0 mph /  46.7 km/h 64 % 0.00 in /  0 mm
19:13 37.6 °F /  3.1 °C 26.9 °F /  -2.8 °C 30.33 in /  1027 hPa Calm   29.0 mph /  46.7 km/h 65 % 0.00 in /  0 mm
19:18 37.2 °F /  2.9 °C 26.9 °F /  -2.8 °C 30.33 in /  1027 hPa West 0.4 mph /  0.6 km/h 29.0 mph /  46.7 km/h 66 % 0.00 in /  0 mm
19:23 36.8 °F /  2.7 °C 26.5 °F /  -3.1 °C 30.34 in /  1027.3 hPa West 1.5 mph /  2.4 km/h 29.0 mph /  46.7 km/h 66 % 0.00 in /  0 mm
19:28 36.4 °F /  2.4 °C 26.5 °F /  -3.1 °C 30.34 in /  1027.3 hPa West 1.9 mph /  3.1 km/h 29.0 mph /  46.7 km/h 67 % 0.00 in /  0 mm
19:33 36.1 °F /  2.3 °C 26.6 °F /  -3 °C 30.34 in /  1027.3 hPa West 0.9 mph /  1.4 km/h 29.0 mph /  46.7 km/h 68 % 0.00 in /  0 mm
19:38 36.0 °F /  2.2 °C 26.5 °F /  -3.1 °C 30.35 in /  1027.7 hPa Calm   29.0 mph /  46.7 km/h 68 % 0.00 in /  0 mm
19:43 35.9 °F /  2.2 °C 26.7 °F /  -2.9 °C 30.35 in /  1027.7 hPa Calm   29.0 mph /  46.7 km/h 69 % 0.00 in /  0 mm
19:48 35.7 °F /  2.1 °C 26.5 °F /  -3.1 °C 30.35 in /  1027.7 hPa Calm   29.0 mph /  46.7 km/h 69 % 0.00 in /  0 mm
19:53 35.4 °F /  1.9 °C 26.6 °F /  -3 °C 30.35 in /  1027.7 hPa West 0.6 mph /  1 km/h 29.0 mph /  46.7 km/h 70 % 0.00 in /  0 mm
19:58 35.2 °F /  1.8 °C 26.4 °F /  -3.1 °C 30.35 in /  1027.7 hPa West 1.8 mph /  2.9 km/h 29.0 mph /  46.7 km/h 70 % 0.00 in /  0 mm
20:03 34.9 °F /  1.6 °C 26.1 °F /  -3.3 °C 30.36 in /  1028 hPa Calm   29.0 mph /  46.7 km/h 70 % 0.00 in /  0 mm
20:08 34.7 °F /  1.5 °C 26.3 °F /  -3.2 °C 30.36 in /  1028 hPa Calm   29.0 mph /  46.7 km/h 71 % 0.00 in /  0 mm
20:13 34.6 °F /  1.4 °C 26.2 °F /  -3.2 °C 30.36 in /  1028 hPa Calm   29.0 mph /  46.7 km/h 71 % 0.00 in /  0 mm
20:18 34.4 °F /  1.3 °C 26.0 °F /  -3.3 °C 30.37 in /  1028.3 hPa Calm   29.0 mph /  46.7 km/h 71 % 0.00 in /  0 mm
20:23 34.3 °F /  1.3 °C 25.9 °F /  -3.4 °C 30.37 in /  1028.3 hPa West 0.6 mph /  1 km/h 29.0 mph /  46.7 km/h 71 % 0.00 in /  0 mm
20:28 34.0 °F /  1.1 °C 25.9 °F /  -3.4 °C 30.38 in /  1028.7 hPa West 2.0 mph /  3.2 km/h 29.0 mph /  46.7 km/h 72 % 0.00 in /  0 mm
20:34 33.8 °F /  1 °C 25.7 °F /  -3.5 °C 30.38 in /  1028.7 hPa Calm   29.0 mph /  46.7 km/h 72 % 0.00 in /  0 mm
20:39 33.7 °F /  0.9 °C 25.6 °F /  -3.6 °C 30.39 in /  1029 hPa Calm   29.0 mph /  46.7 km/h 72 % 0.00 in /  0 mm
20:44 33.6 °F /  0.9 °C 25.5 °F /  -3.6 °C 30.39 in /  1029 hPa Calm   29.0 mph /  46.7 km/h 72 % 0.00 in /  0 mm
20:49 33.4 °F /  0.8 °C 25.7 °F /  -3.5 °C 30.39 in /  1029 hPa Calm   29.0 mph /  46.7 km/h 73 % 0.00 in /  0 mm
20:54 33.3 °F /  0.7 °C 25.6 °F /  -3.6 °C 30.39 in /  1029 hPa Calm   29.0 mph /  46.7 km/h 73 % 0.00 in /  0 mm
20:59 33.2 °F /  0.7 °C 25.5 °F /  -3.6 °C 30.39 in /  1029 hPa Calm   29.0 mph /  46.7 km/h 73 % 0.00 in /  0 mm
21:04 33.0 °F /  0.6 °C 25.3 °F /  -3.7 °C 30.39 in /  1029 hPa Calm   29.0 mph /  46.7 km/h 73 % 0.00 in /  0 mm
21:09 32.9 °F /  0.5 °C 25.5 °F /  -3.6 °C 30.39 in /  1029 hPa Calm   29.0 mph /  46.7 km/h 74 % 0.00 in /  0 mm
21:14 32.8 °F /  0.4 °C 25.4 °F /  -3.7 °C 30.39 in /  1029 hPa West 0.2 mph /  0.3 km/h 29.0 mph /  46.7 km/h 74 % 0.00 in /  0 mm
21:19 32.5 °F /  0.3 °C 25.5 °F /  -3.6 °C 30.39 in /  1029 hPa Calm   29.0 mph /  46.7 km/h 75 % 0.00 in /  0 mm
21:24 32.3 °F /  0.2 °C 25.6 °F /  -3.6 °C 30.38 in /  1028.7 hPa Calm   29.0 mph /  46.7 km/h 76 % 0.00 in /  0 mm
21:29 32.1 °F /  0.1 °C 25.4 °F /  -3.7 °C 30.39 in /  1029 hPa West 1.1 mph /  1.8 km/h 29.0 mph /  46.7 km/h 76 % 0.00 in /  0 mm
21:34 32.0 °F /  0 °C 25.3 °F /  -3.7 °C 30.39 in /  1029 hPa Calm   29.0 mph /  46.7 km/h 76 % 0.00 in /  0 mm
21:39 31.9 °F /  -0.1 °C 25.2 °F /  -3.8 °C 30.39 in /  1029 hPa Calm     76 % 0.00 in /  0 mm
21:44 31.7 °F /  -0.2 °C 25.0 °F /  -3.9 °C 30.40 in /  1029.3 hPa Calm   29.0 mph /  46.7 km/h 76 % 0.00 in /  0 mm
21:49 31.6 °F /  -0.2 °C 24.9 °F /  -3.9 °C 30.40 in /  1029.3 hPa Calm     76 % 0.00 in /  0 mm
21:54 31.6 °F /  -0.2 °C 25.2 °F /  -3.8 °C 30.40 in /  1029.3 hPa Calm     77 % 0.00 in /  0 mm
21:59 31.5 °F /  -0.3 °C 25.1 °F /  -3.8 °C 30.41 in /  1029.7 hPa Calm   29.0 mph /  46.7 km/h 77 % 0.00 in /  0 mm
22:04 31.4 °F /  -0.3 °C 25.0 °F /  -3.9 °C 30.41 in /  1029.7 hPa Calm     77 % 0.00 in /  0 mm
22:09 31.2 °F /  -0.4 °C 24.8 °F /  -4 °C 30.41 in /  1029.7 hPa Calm   29.0 mph /  46.7 km/h 77 % 0.00 in /  0 mm
22:14 31.2 °F /  -0.4 °C 24.8 °F /  -4 °C 30.42 in /  1030 hPa West 0.1 mph /  0.2 km/h 29.0 mph /  46.7 km/h 77 % 0.00 in /  0 mm
22:19 31.1 °F /  -0.5 °C 24.7 °F /  -4.1 °C 30.42 in /  1030 hPa Calm   1.0 mph /  1.6 km/h 77 % 0.00 in /  0 mm
22:24 31.1 °F /  -0.5 °C 24.7 °F /  -4.1 °C 30.42 in /  1030 hPa Calm     77 % 0.00 in /  0 mm
22:29 31.1 °F /  -0.5 °C 24.7 °F /  -4.1 °C 30.42 in /  1030 hPa Calm     77 % 0.00 in /  0 mm
22:34 31.1 °F /  -0.5 °C 24.7 °F /  -4.1 °C 30.42 in /  1030 hPa West 1.0 mph /  1.6 km/h 2.0 mph /  3.2 km/h 77 % 0.00 in /  0 mm
22:39 31.0 °F /  -0.6 °C 24.9 °F /  -3.9 °C 30.42 in /  1030 hPa West 1.0 mph /  1.6 km/h 2.0 mph /  3.2 km/h 78 % 0.00 in /  0 mm
22:44 31.0 °F /  -0.6 °C 24.9 °F /  -3.9 °C 30.42 in /  1030 hPa Calm   1.0 mph /  1.6 km/h 78 % 0.00 in /  0 mm
22:49 30.9 °F /  -0.6 °C 25.2 °F /  -3.8 °C 30.43 in /  1030.4 hPa Calm   1.0 mph /  1.6 km/h 79 % 0.00 in /  0 mm
22:54 30.9 °F /  -0.6 °C 25.2 °F /  -3.8 °C 30.42 in /  1030 hPa Calm     79 % 0.00 in /  0 mm
22:59 30.9 °F /  -0.6 °C 25.5 °F /  -3.6 °C 30.42 in /  1030 hPa Calm   29.0 mph /  46.7 km/h 80 % 0.00 in /  0 mm
23:04 30.9 °F /  -0.6 °C 25.5 °F /  -3.6 °C 30.42 in /  1030 hPa Calm   29.0 mph /  46.7 km/h 80 % 0.00 in /  0 mm
23:09 30.9 °F /  -0.6 °C 25.5 °F /  -3.6 °C 30.42 in /  1030 hPa Calm   29.0 mph /  46.7 km/h 80 % 0.00 in /  0 mm
23:14 31.0 °F /  -0.6 °C 26.1 °F /  -3.3 °C 30.42 in /  1030 hPa Calm   29.0 mph /  46.7 km/h 82 % 0.00 in /  0 mm
23:19 31.0 °F /  -0.6 °C 26.1 °F /  -3.3 °C 30.42 in /  1030 hPa Calm   29.0 mph /  46.7 km/h 82 % 0.00 in /  0 mm
23:24 31.0 °F /  -0.6 °C 26.4 °F /  -3.1 °C 30.42 in /  1030 hPa Calm   29.0 mph /  46.7 km/h 83 % 0.00 in /  0 mm
23:29 31.1 °F /  -0.5 °C 26.5 °F /  -3.1 °C 30.42 in /  1030 hPa Calm   29.0 mph /  46.7 km/h 83 % 0.00 in /  0 mm
23:35 31.1 °F /  -0.5 °C 26.5 °F /  -3.1 °C 30.42 in /  1030 hPa Calm   29.0 mph /  46.7 km/h 83 % 0.00 in /  0 mm
23:39 31.2 °F /  -0.4 °C 26.6 °F /  -3 °C 30.42 in /  1030 hPa Calm   29.0 mph /  46.7 km/h 83 % 0.00 in /  0 mm
23:45 31.3 °F /  -0.4 °C 27.0 °F /  -2.8 °C 30.42 in /  1030 hPa West 1.1 mph /  1.8 km/h 29.0 mph /  46.7 km/h 84 % 0.00 in /  0 mm
23:50 31.3 °F /  -0.4 °C 27.0 °F /  -2.8 °C 30.42 in /  1030 hPa West 0.2 mph /  0.3 km/h 29.0 mph /  46.7 km/h 84 % 0.00 in /  0 mm
23:55 31.4 °F /  -0.3 °C 27.1 °F /  -2.7 °C 30.42 in /  1030 hPa West 0.2 mph /  0.3 km/h 29.0 mph /  46.7 km/h 84 % 0.00 in /  0 mm
Crab Meadow Weather
Compliments of Weather Underground - 3 mb

Script developed by  Jim McMurry - jmcmurry@mwt.net Adapted for the template by  Wim van der Kuil - Leuven-Template.eu

Cloud Base: The cloud base is the distance from the sea level to the base of the clouds. It is estimated using the current temperature and humidity to indicate an altitude where the air could be cold enough for clouds to form. There may or may not be clouds at that altitude (or at any altitude)